Time;durP1;ratioP1;P1;durP2;ratioP2;P2;SDS_P1;SDS_P2;PMS_P1;PMS_P2;Temp;Humidity;BMP_temperature;BMP_pressure;BME280_temperature;BME280_humidity;BME280_pressure;Samples;Min_cycle;Max_cycle;Signal;HPM_P1;HPM_P2
2022/02/02 00:00:41;;;;;;;7.68;1.13;;;;;;;5.42;100.00;100401.28;6197879;28;20053;-76
2022/02/02 00:03:48;;;;;;;1.60;0.68;;;;;;;5.51;100.00;100396.56;6194848;28;20053;-77
2022/02/02 00:07:00;;;;;;;8.05;1.70;;;;;;;5.49;100.00;100402.72;6194770;28;20053;-78
2022/02/02 00:10:11;;;;;;;1.85;0.63;;;;;;;5.41;100.00;100407.41;6196994;28;20048;-78
2022/02/02 00:13:29;;;;;;;10.57;2.35;;;;;;;5.41;100.00;100410.00;6199873;28;20625;-78
2022/02/02 00:19:59;;;;;;;9.00;1.35;;;;;;;5.40;100.00;100434.34;6199179;28;20047;-77
2022/02/02 00:23:02;;;;;;;9.30;1.10;;;;;;;5.39;100.00;100443.06;6200123;28;20077;-77
2022/02/02 00:26:08;;;;;;;3.55;1.08;;;;;;;5.47;100.00;100425.41;6199812;28;20046;-77
2022/02/02 00:29:14;;;;;;;3.00;0.52;;;;;;;5.45;100.00;100446.31;6199284;28;20050;-77
2022/02/02 00:32:25;;;;;;;1.88;0.85;;;;;;;5.42;100.00;100433.38;6196973;28;20097;-77
2022/02/02 00:35:31;;;;;;;6.15;0.93;;;;;;;5.45;100.00;100451.53;6197086;28;20058;-77
2022/02/02 00:38:33;;;;;;;10.50;1.85;;;;;;;5.30;100.00;100454.66;6197044;28;20061;-78
2022/02/02 00:41:34;;;;;;;14.35;2.00;;;;;;;5.14;100.00;100458.75;6196575;28;20521;-78
2022/02/02 00:44:41;;;;;;;8.25;1.80;;;;;;;5.13;100.00;100457.88;6196795;28;20050;-77
2022/02/02 00:47:48;;;;;;;7.75;1.92;;;;;;;5.14;100.00;100453.53;6197913;28;20050;-78
2022/02/02 00:50:49;;;;;;;5.05;1.20;;;;;;;5.15;100.00;100447.41;6198946;28;20080;-77
2022/02/02 00:53:50;;;;;;;12.65;1.63;;;;;;;5.29;100.00;100453.81;6199587;28;20056;-79
2022/02/02 00:56:52;;;;;;;7.22;1.73;;;;;;;5.41;100.00;100451.69;6198766;28;20058;-77
2022/02/02 00:59:54;;;;;;;6.55;1.35;;;;;;;5.42;100.00;100441.19;6198787;28;20049;-77
2022/02/02 01:02:56;;;;;;;9.88;1.33;;;;;;;5.42;100.00;100446.41;6198915;28;20050;-78
2022/02/02 01:06:00;;;;;;;6.72;1.52;;;;;;;5.51;100.00;100443.47;6198965;28;20050;-77
2022/02/02 01:09:15;;;;;;;2.65;0.90;;;;;;;5.36;100.00;100472.72;6199075;28;20418;-77
2022/02/02 01:18:59;;;;;;;3.53;0.97;;;;;;;4.01;100.00;100518.81;6198445;28;19922;-78
2022/02/02 01:22:14;;;;;;;5.32;0.57;;;;;;;3.84;100.00;100515.84;6198693;28;20296;-78
2022/02/02 01:28:34;;;;;;;1.42;0.32;;;;;;;3.43;100.00;100491.06;6199174;28;20545;-78
2022/02/02 01:31:35;;;;;;;6.78;0.20;;;;;;;3.26;100.00;100494.97;6198949;28;20086;-79
2022/02/02 01:34:38;;;;;;;3.85;0.55;;;;;;;3.13;100.00;100484.94;6199508;28;20061;-78
2022/02/02 01:37:39;;;;;;;3.63;0.55;;;;;;;3.03;100.00;100497.31;6198923;28;20046;-78
2022/02/02 01:40:45;;;;;;;2.28;0.73;;;;;;;3.01;100.00;100499.13;6198394;28;20050;-78
2022/02/02 01:43:54;;;;;;;1.00;0.65;;;;;;;2.97;100.00;100498.34;6198837;28;20189;-78
2022/02/02 01:46:56;;;;;;;1.33;0.57;;;;;;;2.96;100.00;100495.81;6198802;28;20537;-78
2022/02/02 01:50:15;;;;;;;4.68;0.55;;;;;;;3.03;100.00;100494.72;6198441;28;20042;-80
2022/02/02 01:53:25;;;;;;;1.65;0.28;;;;;;;3.12;100.00;100491.88;6198690;28;20089;-79
2022/02/02 01:56:26;;;;;;;9.07;0.70;;;;;;;3.28;100.00;100484.56;6198655;28;20097;-78
2022/02/02 01:59:38;;;;;;;9.02;0.65;;;;;;;3.60;100.00;100495.78;6198492;28;20057;-78
2022/02/02 02:02:40;;;;;;;4.47;0.70;;;;;;;3.79;100.00;100500.38;6198436;28;20050;-78
2022/02/02 02:05:43;;;;;;;6.15;1.40;;;;;;;3.93;100.00;100514.72;6199059;28;20054;-78
2022/02/02 02:08:45;;;;;;;2.80;0.93;;;;;;;4.02;100.00;100502.31;6198369;28;20049;-78
2022/02/02 02:11:56;;;;;;;4.50;0.85;;;;;;;4.27;100.00;100506.75;6198687;28;20049;-78
2022/02/02 02:15:02;;;;;;;7.25;2.13;;;;;;;4.17;100.00;100498.38;6199630;28;20050;-78
2022/02/02 02:18:04;;;;;;;5.28;1.02;;;;;;;4.17;100.00;100489.72;6199374;28;20054;-78
2022/02/02 02:21:11;;;;;;;4.60;0.82;;;;;;;4.29;100.00;100498.00;6199197;28;20047;-79
2022/02/02 02:24:14;;;;;;;1.73;0.60;;;;;;;4.25;100.00;100505.94;6201145;28;20057;-80
2022/02/02 02:27:18;;;;;;;2.83;0.70;;;;;;;4.32;100.00;100503.13;6203864;28;20050;-78
2022/02/02 02:30:27;;;;;;;9.77;2.80;;;;;;;4.32;100.00;100513.53;6203506;28;20051;-79
2022/02/02 02:33:49;;;;;;;3.33;0.70;;;;;;;4.26;100.00;100518.88;6203332;28;20054;-77
2022/02/02 02:37:13;;;;;;;12.43;1.75;;;;;;;4.08;100.00;100504.69;6203598;28;20061;-78
2022/02/02 02:40:26;;;;;;;7.75;1.40;;;;;;;3.97;100.00;100508.53;6203030;28;20073;-78
2022/02/02 02:56:47;;;;;;;4.35;1.00;;;;;;;3.42;100.00;100528.31;6202247;28;19922;-77
2022/02/02 03:00:05;;;;;;;2.20;0.65;;;;;;;3.19;100.00;100528.94;6202398;28;20073;-78
2022/02/02 03:29:58;;;;;;;15.40;4.32;;;;;;;3.48;100.00;100543.72;6200501;28;20058;-78
2022/02/02 03:50:05;;;;;;;1.08;0.47;;;;;;;3.63;100.00;100602.22;6201641;28;20058;-78
2022/02/02 03:56:35;;;;;;;;;;;;;;;3.75;100.00;100626.13;6177558;28;20051;-78
2022/02/02 03:59:44;;;;;;;5.25;1.15;;;;;;;3.76;100.00;100596.63;6189552;28;20296;-77
2022/02/02 04:03:03;;;;;;;4.18;0.60;;;;;;;3.80;100.00;100603.44;6200675;28;20047;-77
2022/02/02 04:06:07;;;;;;;2.80;1.35;;;;;;;3.85;100.00;100592.91;6201588;28;20240;-77
2022/02/02 04:09:08;;;;;;;6.45;1.17;;;;;;;3.84;100.00;100593.81;6200643;28;20058;-78
2022/02/02 04:12:17;;;;;;;4.68;0.93;;;;;;;3.76;100.00;100603.56;6199931;28;20046;-79
2022/02/02 04:39:06;;;;;;;1.42;0.60;;;;;;;3.99;100.00;100637.56;6200670;28;20058;-78
2022/02/02 04:52:20;;;;;;;9.70;2.38;;;;;;;4.20;100.00;100654.34;6199514;28;20054;-78
2022/02/02 04:55:29;;;;;;;1.23;0.57;;;;;;;4.22;100.00;100642.13;6192527;28;20046;-77
2022/02/02 04:58:41;;;;;;;4.88;1.33;;;;;;;4.16;100.00;100655.31;6199439;28;20534;-77
2022/02/02 05:02:27;;;;;;;6.43;1.55;;;;;;;4.14;100.00;100649.31;6198750;28;20505;-78
2022/02/02 05:08:44;;;;;;;2.80;0.80;;;;;;;4.20;100.00;100671.69;6176608;28;20046;-78
2022/02/02 05:12:18;;;;;;;7.32;1.95;;;;;;;4.13;100.00;100675.34;6199036;28;20046;-78
2022/02/02 05:19:14;;;;;;;12.73;3.17;;;;;;;4.28;100.00;100675.78;6198647;28;20058;-78
2022/02/02 05:43:04;;;;;;;4.72;2.13;;;;;;;4.40;100.00;100710.97;6197943;28;20050;-76
2022/02/02 05:49:17;;;;;;;1.33;0.55;;;;;;;4.56;100.00;100717.47;6198098;28;20406;-77
2022/02/02 05:52:18;;;;;;;2.10;0.80;;;;;;;4.51;100.00;100731.50;6197575;28;20058;-77
2022/02/02 05:55:20;;;;;;;3.78;1.17;;;;;;;4.53;100.00;100720.16;6198182;28;20054;-77
2022/02/02 05:58:29;;;;;;;1.77;0.90;;;;;;;4.53;100.00;100738.34;6200323;28;20494;-77
2022/02/02 06:01:31;;;;;;;6.95;1.50;;;;;;;4.54;100.00;100736.59;6202802;28;20522;-78
2022/02/02 06:04:33;;;;;;;6.90;1.23;;;;;;;4.54;100.00;100740.09;6202156;28;20502;-75
2022/02/02 06:07:36;;;;;;;10.43;1.23;;;;;;;4.44;100.00;100743.81;6202147;28;20054;-75
2022/02/02 06:10:38;;;;;;;4.78;1.40;;;;;;;4.46;100.00;100747.25;6202044;28;20073;-76
2022/02/02 06:13:44;;;;;;;5.80;2.28;;;;;;;4.45;100.00;100749.88;6201713;28;20047;-76
2022/02/02 06:16:46;;;;;;;8.05;2.70;;;;;;;4.35;100.00;100762.28;6201916;28;20133;-76
2022/02/02 06:19:48;;;;;;;6.82;1.08;;;;;;;4.30;100.00;100751.16;6201654;28;20054;-75
2022/02/02 06:22:55;;;;;;;6.75;1.00;;;;;;;4.32;100.00;100752.84;6202354;28;20046;-75
2022/02/02 06:25:59;;;;;;;5.25;1.15;;;;;;;4.27;100.00;100756.44;6202114;28;20051;-76
2022/02/02 06:29:04;;;;;;;5.40;2.35;;;;;;;4.30;100.00;100765.03;6202383;28;20051;-75
2022/02/02 06:32:07;;;;;;;3.78;1.75;;;;;;;4.40;100.00;100777.78;6201188;28;20046;-75
2022/02/02 06:35:08;;;;;;;13.98;0.95;;;;;;;4.39;100.00;100791.69;6201809;28;20085;-76
2022/02/02 06:38:10;;;;;;;3.60;1.10;;;;;;;4.40;100.00;100796.00;6201671;28;20046;-75
2022/02/02 06:41:11;;;;;;;9.07;1.67;;;;;;;4.49;100.00;100817.41;6201501;28;20391;-76
2022/02/02 06:44:14;;;;;;;5.82;0.95;;;;;;;4.45;100.00;100801.91;6201113;28;20061;-76
2022/02/02 06:47:15;;;;;;;2.47;0.60;;;;;;;4.54;100.00;100807.75;6198762;28;20054;-76
2022/02/02 06:50:23;;;;;;;14.50;1.95;;;;;;;4.57;100.00;100815.44;6201077;28;20054;-75
2022/02/02 06:53:31;;;;;;;3.45;0.82;;;;;;;4.73;100.00;100813.28;6194703;28;20054;-75
2022/02/02 06:56:43;;;;;;;5.15;1.45;;;;;;;4.76;100.00;100833.16;6199310;28;20050;-75
2022/02/02 07:00:00;;;;;;;3.83;1.15;;;;;;;4.68;100.00;100854.22;6197879;28;20047;-76
2022/02/02 07:03:19;;;;;;;6.85;0.70;;;;;;;4.59;100.00;100851.88;6200213;28;20057;-76
2022/02/02 07:06:36;;;;;;;4.95;1.05;;;;;;;4.45;100.00;100865.25;6198319;28;20073;-76
2022/02/02 07:09:58;;;;;;;9.45;1.10;;;;;;;4.57;100.00;100874.47;6198801;28;20521;-76
2022/02/02 07:13:16;;;;;;;5.35;1.00;;;;;;;4.64;100.00;100890.78;6200690;28;20065;-76
2022/02/02 07:16:31;;;;;;;4.28;0.95;;;;;;;4.54;100.00;100888.44;6201152;28;20137;-75
2022/02/02 07:19:47;;;;;;;4.80;1.20;;;;;;;4.50;100.00;100889.41;6199351;28;20046;-76
2022/02/02 07:23:14;;;;;;;2.50;1.05;;;;;;;4.56;100.00;100911.81;6196216;28;20053;-75
2022/02/02 07:26:48;;;;;;;5.95;1.20;;;;;;;4.53;100.00;100917.91;6193591;28;20046;-76
2022/02/02 07:30:00;;;;;;;5.45;0.82;;;;;;;4.46;100.00;100934.59;6188003;28;20057;-75
2022/02/02 07:33:10;;;;;;;1.55;0.30;;;;;;;4.40;100.00;100932.13;6197395;28;20104;-76
2022/02/02 07:36:24;;;;;;;6.80;0.85;;;;;;;4.42;100.00;100938.16;6200271;28;20489;-75
2022/02/02 07:39:27;;;;;;;10.10;1.15;;;;;;;4.40;100.00;100950.34;6193157;28;20046;-75
2022/02/02 07:42:29;;;;;;;5.43;1.27;;;;;;;4.19;100.00;100948.28;6198497;28;20144;-76
2022/02/02 07:45:32;;;;;;;6.97;1.20;;;;;;;3.98;100.00;100940.09;6200500;28;20050;-76
2022/02/02 07:48:38;;;;;;;4.10;1.33;;;;;;;3.94;100.00;100950.59;6200198;28;20061;-76
2022/02/02 07:51:41;;;;;;;5.68;2.28;;;;;;;4.02;100.00;100962.53;6197582;28;20046;-76
2022/02/02 07:54:43;;;;;;;9.20;1.63;;;;;;;3.97;100.00;100977.38;6195828;28;20144;-77
2022/02/02 07:57:48;;;;;;;5.13;0.52;;;;;;;4.16;100.00;100954.41;6194429;28;20129;-75
2022/02/02 08:00:49;;;;;;;8.70;0.90;;;;;;;4.28;100.00;100955.88;6198366;28;20046;-75
2022/02/02 08:03:55;;;;;;;3.67;0.93;;;;;;;4.30;100.00;100957.53;6198894;28;20057;-75
2022/02/02 08:06:57;;;;;;;7.47;1.38;;;;;;;4.42;100.00;100955.53;6199537;28;20121;-76
2022/02/02 08:10:07;;;;;;;2.05;0.93;;;;;;;4.51;100.00;100956.16;6199010;28;20198;-75
2022/02/02 08:13:14;;;;;;;5.78;0.85;;;;;;;4.61;100.00;100961.13;6199514;28;20053;-75
2022/02/02 08:16:17;;;;;;;1.48;0.63;;;;;;;4.64;100.00;100966.28;6199351;28;20050;-75
2022/02/02 08:19:22;;;;;;;6.15;0.45;;;;;;;4.66;100.00;100980.94;6199184;28;20065;-76
2022/02/02 08:22:24;;;;;;;8.07;1.08;;;;;;;4.64;100.00;100981.88;6198672;28;20042;-75
2022/02/02 08:25:27;;;;;;;0.63;0.43;;;;;;;4.62;100.00;100999.28;6196680;28;20046;-76
2022/02/02 08:28:28;;;;;;;2.90;0.90;;;;;;;4.57;100.00;101008.03;6198933;28;20050;-77
2022/02/02 08:31:29;;;;;;;5.35;0.52;;;;;;;4.64;100.00;100997.50;6198356;28;20054;-77
2022/02/02 08:34:34;;;;;;;5.82;0.73;;;;;;;4.65;100.00;101014.81;6199215;28;20054;-75
2022/02/02 08:37:38;;;;;;;7.28;0.75;;;;;;;4.53;100.00;101021.16;6198374;28;20137;-78
2022/02/02 08:40:43;;;;;;;1.55;0.50;;;;;;;4.56;100.00;101028.91;6195735;28;20425;-77
2022/02/02 08:43:51;;;;;;;1.30;0.35;;;;;;;4.53;100.00;101042.84;6199503;28;20426;-79
2022/02/02 08:46:59;;;;;;;7.47;0.85;;;;;;;4.58;100.00;101032.31;6198500;28;20061;-75
2022/02/02 08:50:03;;;;;;;5.97;0.85;;;;;;;4.56;100.00;101047.97;6195930;28;20129;-75
2022/02/02 08:53:14;;;;;;;1.63;0.20;;;;;;;4.59;100.00;101031.44;6198179;28;20443;-75
2022/02/02 08:56:50;;;;;;;2.40;0.57;;;;;;;4.57;100.00;101039.28;6198811;28;20154;-77
2022/02/02 08:59:57;;;;;;;1.15;0.43;;;;;;;4.64;100.00;101036.53;6197519;28;20054;-76
2022/02/02 09:06:15;;;;;;;7.15;2.03;;;;;;;4.65;100.00;101053.88;6187247;28;20057;-76
2022/02/02 09:09:20;;;;;;;2.55;1.00;;;;;;;4.65;100.00;101046.91;6197304;28;20148;-76
2022/02/02 09:26:01;;;;;;;15.02;0.90;;;;;;;4.79;100.00;101083.88;6193929;28;20047;-77
2022/02/02 09:32:40;;;;;;;1.25;1.00;;;;;;;4.92;100.00;101092.25;6197096;28;20636;-77
2022/02/02 09:35:41;;;;;;;9.45;1.55;;;;;;;5.01;100.00;101099.00;6198025;28;20046;-77
2022/02/02 09:38:44;;;;;;;4.68;0.88;;;;;;;5.14;100.00;101100.41;6198109;28;20057;-77
2022/02/02 09:41:48;;;;;;;9.65;1.05;;;;;;;5.18;100.00;101093.34;6197322;28;20129;-77
2022/02/02 09:44:53;;;;;;;4.13;0.50;;;;;;;5.18;100.00;101109.84;6197699;28;20058;-76
2022/02/02 09:47:59;;;;;;;5.32;1.45;;;;;;;5.19;100.00;101119.38;6197625;28;20138;-76
2022/02/02 09:51:05;;;;;;;3.22;0.80;;;;;;;5.12;100.00;101124.75;6197117;28;20094;-76
2022/02/02 09:54:13;;;;;;;6.57;0.73;;;;;;;5.24;100.00;101135.72;6197660;28;20061;-75
2022/02/02 09:57:46;;;;;;;3.95;1.08;;;;;;;5.26;100.00;101144.34;6197908;28;20081;-74
2022/02/02 10:01:17;;;;;;;0.73;0.50;;;;;;;5.23;100.00;101144.47;6196871;28;20050;-74
2022/02/02 10:04:31;;;;;;;3.40;1.00;;;;;;;5.24;100.00;101147.91;6192905;28;20088;-75
2022/02/02 10:07:53;;;;;;;2.90;1.02;;;;;;;5.22;100.00;101170.53;6191054;28;20050;-75
2022/02/02 10:11:00;;;;;;;6.57;1.50;;;;;;;5.41;100.00;101166.59;6189012;28;20046;-77
2022/02/02 10:14:14;;;;;;;4.72;1.08;;;;;;;5.62;100.00;101156.50;6196959;28;20046;-77
2022/02/02 10:17:16;;;;;;;4.28;1.00;;;;;;;5.58;100.00;101173.97;6197351;28;20661;-75
2022/02/02 10:20:19;;;;;;;2.05;0.50;;;;;;;5.54;100.00;101174.94;6196923;28;20054;-75
2022/02/02 10:23:25;;;;;;;6.47;0.90;;;;;;;5.50;100.00;101194.19;6196833;28;20057;-76
2022/02/02 10:26:27;;;;;;;5.47;0.40;;;;;;;5.51;100.00;101195.88;6196775;28;20398;-76
2022/02/02 10:29:38;;;;;;;3.75;1.05;;;;;;;5.51;100.00;101201.09;6196863;28;20049;-75
2022/02/02 10:32:41;;;;;;;9.18;1.20;;;;;;;5.43;100.00;101205.63;6194051;28;20453;-77
2022/02/02 10:35:44;;;;;;;4.07;1.02;;;;;;;5.48;100.00;101220.25;6196327;28;20046;-76
2022/02/02 10:39:00;;;;;;;10.45;0.80;;;;;;;5.49;100.00;101234.16;6196205;28;20057;-74
2022/02/02 10:42:03;;;;;;;1.67;0.45;;;;;;;5.44;100.00;101233.41;6194572;28;20494;-76
2022/02/02 10:45:19;;;;;;;0.90;0.40;;;;;;;5.40;100.00;101239.59;6199180;28;20072;-75
2022/02/02 10:48:31;;;;;;;6.57;0.50;;;;;;;5.49;100.00;101226.31;6199586;28;20537;-75
2022/02/02 10:51:39;;;;;;;2.42;0.88;;;;;;;5.64;100.00;101222.50;6194560;28;20129;-76
2022/02/02 10:54:52;;;;;;;4.57;0.82;;;;;;;5.69;100.00;101228.47;6201139;28;21442;-77
2022/02/02 10:58:19;;;;;;;3.30;0.88;;;;;;;5.66;100.00;101228.53;6201188;28;20189;-76
2022/02/02 11:01:33;;;;;;;5.78;0.93;;;;;;;5.72;100.00;101234.47;6197384;28;20050;-75
2022/02/02 11:07:56;;;;;;;2.35;0.40;;;;;;;5.95;100.00;101238.22;6199331;28;20042;-77
2022/02/02 11:10:59;;;;;;;6.22;0.52;;;;;;;5.92;100.00;101244.41;6198934;28;20043;-79
2022/02/02 11:14:08;;;;;;;4.80;0.70;;;;;;;5.98;97.75;101253.81;6200157;28;20144;-77
2022/02/02 11:17:17;;;;;;;6.07;1.13;;;;;;;5.97;98.47;101252.09;6200538;28;20061;-75
2022/02/02 11:20:23;;;;;;;1.83;0.30;;;;;;;5.90;99.49;101253.09;6200517;28;20061;-76
2022/02/02 11:23:25;;;;;;;8.65;1.05;;;;;;;5.94;98.45;101270.44;6197586;28;20051;-75
2022/02/02 11:26:39;;;;;;;2.03;0.68;;;;;;;6.12;97.00;101277.78;6200669;28;20058;-77
2022/02/02 11:29:45;;;;;;;0.70;0.38;;;;;;;6.18;93.80;101292.44;6200007;28;20129;-75
2022/02/02 11:32:47;;;;;;;4.07;0.63;;;;;;;6.10;93.89;101310.91;6200150;28;20053;-77
2022/02/02 11:35:52;;;;;;;2.03;0.75;;;;;;;6.06;89.85;101310.09;6192313;28;20101;-78
2022/02/02 11:38:55;;;;;;;1.60;0.85;;;;;;;5.93;91.88;101308.72;6200233;28;20056;-76
2022/02/02 11:42:01;;;;;;;3.80;0.35;;;;;;;5.93;90.62;101313.94;6199833;28;20529;-76
2022/02/02 11:45:24;;;;;;;2.10;0.32;;;;;;;5.90;91.57;101323.53;6200297;28;20050;-77
2022/02/02 11:49:06;;;;;;;0.82;0.32;;;;;;;5.94;91.13;101339.09;6199840;28;20054;-76
2022/02/02 11:52:32;;;;;;;2.28;1.25;;;;;;;5.95;89.60;101337.34;6194824;28;20053;-75
2022/02/02 11:55:43;;;;;;;3.40;0.45;;;;;;;5.95;91.20;101338.25;6200439;28;20061;-77
2022/02/02 11:58:45;;;;;;;2.30;0.73;;;;;;;6.00;91.77;101332.91;6199163;28;20422;-76
2022/02/02 12:01:48;;;;;;;0.60;0.30;;;;;;;6.10;92.98;101316.97;6199335;28;20414;-77
2022/02/02 12:05:00;;;;;;;5.95;0.80;;;;;;;6.10;91.49;101323.94;6199292;28;20057;-75
2022/02/02 12:08:16;;;;;;;4.57;0.70;;;;;;;6.09;92.85;101323.09;6199969;28;20180;-77
2022/02/02 12:11:40;;;;;;;2.35;0.70;;;;;;;5.99;94.95;101324.19;6199539;28;20521;-78
2022/02/02 12:58:39;;;;;;;4.35;0.93;;;;;;;6.60;84.94;101355.69;6199307;28;20533;-77
2022/02/02 13:01:40;;;;;;;0.52;0.35;;;;;;;6.44;86.51;101360.44;6197697;28;20548;-77
2022/02/02 13:04:43;;;;;;;7.07;0.50;;;;;;;6.31;86.02;101357.31;6198595;28;20050;-77
2022/02/02 13:07:47;;;;;;;3.60;0.43;;;;;;;6.23;87.18;101350.59;6197938;28;20046;-76
2022/02/02 13:10:50;;;;;;;1.42;0.28;;;;;;;6.19;86.39;101365.47;6198155;28;20058;-77
2022/02/02 13:13:52;;;;;;;8.45;0.65;;;;;;;6.16;84.14;101390.78;6198087;28;20046;-75
2022/02/02 13:17:01;;;;;;;1.70;0.30;;;;;;;5.98;87.20;101405.13;6198649;28;20047;-83
2022/02/02 13:20:08;;;;;;;5.03;0.90;;;;;;;5.86;86.21;101395.81;6196948;28;20054;-77
2022/02/02 13:23:17;;;;;;;1.92;0.35;;;;;;;5.68;87.91;101393.59;6198407;28;20140;-77
2022/02/02 13:26:27;;;;;;;;;;;;;;;5.53;88.26;101394.81;6198922;28;20581;-78
2022/02/02 13:29:40;;;;;;;1.92;0.40;;;;;;;5.49;88.53;101390.53;6196278;28;19944;-77
2022/02/02 13:32:51;;;;;;;0.17;0.15;;;;;;;5.59;86.27;101394.69;6197621;28;20072;-77
2022/02/02 13:36:20;;;;;;;0.57;0.30;;;;;;;5.56;87.13;101392.13;6198614;28;20136;-77
2022/02/02 13:43:22;;;;;;;1.80;0.30;;;;;;;5.96;85.38;101394.72;6198203;28;20133;-77
2022/02/02 13:46:40;;;;;;;1.65;0.30;;;;;;;5.96;85.84;101401.69;6198033;28;20046;-77
2022/02/02 13:49:57;;;;;;;1.10;0.50;;;;;;;5.90;85.48;101400.03;6197927;28;20058;-77
2022/02/02 13:53:18;;;;;;;5.07;0.45;;;;;;;5.74;84.56;101407.38;6198021;28;20521;-78
2022/02/02 14:00:23;;;;;;;12.85;1.48;;;;;;;5.55;87.68;101414.75;6187029;28;20137;-78
2022/02/02 14:06:58;;;;;;;4.75;0.77;;;;;;;5.49;88.50;101438.31;6123687;29;20079;-78
2022/02/02 14:10:13;;;;;;;2.10;0.20;;;;;;;5.44;89.48;101439.31;6197803;28;20047;-79
2022/02/02 14:33:11;;;;;;;0.10;0.10;;;;;;;5.37;92.52;101467.28;6201790;28;20491;-78
2022/02/02 14:36:16;;;;;;;4.85;0.80;;;;;;;5.38;92.78;101458.56;6202475;28;20058;-77
2022/02/02 14:39:22;;;;;;;6.47;1.42;;;;;;;5.42;94.05;101467.19;6202168;28;20050;-76
2022/02/02 14:42:28;;;;;;;3.58;1.00;;;;;;;5.42;93.75;101464.56;6201746;28;20046;-77
2022/02/02 14:45:35;;;;;;;1.58;0.40;;;;;;;5.44;94.94;101478.41;6201872;28;20078;-78
2022/02/02 14:48:43;;;;;;;5.22;0.60;;;;;;;5.45;95.37;101467.97;6202240;28;20050;-78
2022/02/02 14:51:55;;;;;;;4.43;0.70;;;;;;;5.43;96.74;101477.56;6201305;28;20058;-77
2022/02/02 15:05:52;;;;;;;7.68;0.63;;;;;;;5.70;99.20;101498.75;6201248;28;20133;-77
2022/02/02 15:09:13;;;;;;;6.60;0.50;;;;;;;5.71;100.00;101519.56;6201094;28;20054;-78
2022/02/02 15:26:19;;;;;;;1.15;0.30;;;;;;;5.69;99.18;101557.00;6200534;28;20479;-75
2022/02/02 15:29:10;;;;;;;4.53;0.80;;;;;;;5.72;98.13;101557.81;6200264;28;20054;-76
2022/02/02 15:32:12;;;;;;;2.67;0.30;;;;;;;5.70;99.35;101562.19;6199315;28;20061;-76
2022/02/02 15:35:14;;;;;;;2.53;0.57;;;;;;;5.63;99.93;101573.59;6200607;28;20256;-76
2022/02/02 15:38:19;;;;;;;5.88;0.93;;;;;;;5.67;100.00;101584.84;6200638;28;20054;-76
2022/02/02 15:41:26;;;;;;;4.13;0.90;;;;;;;5.70;98.83;101580.44;6200147;28;20093;-76
2022/02/02 15:54:56;;;;;;;7.82;0.85;;;;;;;5.38;100.00;101590.63;6199939;28;20050;-77
2022/02/02 16:04:43;;;;;;;4.13;0.45;;;;;;;5.12;100.00;101598.88;6198166;28;20077;-75
2022/02/02 16:07:48;;;;;;;5.65;0.95;;;;;;;5.06;100.00;101602.47;6199863;28;20062;-76
2022/02/02 16:11:01;;;;;;;1.40;0.40;;;;;;;5.00;100.00;101606.03;6199106;28;20046;-76
2022/02/02 16:14:05;;;;;;;3.45;0.60;;;;;;;4.95;100.00;101605.25;6199703;28;20112;-76
2022/02/02 16:17:19;;;;;;;0.32;0.28;;;;;;;4.94;100.00;101608.72;6199346;28;20496;-77
2022/02/02 16:37:15;;;;;;;6.78;0.95;;;;;;;4.57;100.00;101637.06;6199041;28;20152;-76
2022/02/02 16:40:20;;;;;;;1.20;0.38;;;;;;;4.48;100.00;101640.66;6198649;28;20054;-76
2022/02/02 16:43:22;;;;;;;2.13;0.77;;;;;;;4.52;100.00;101646.69;6198324;28;20082;-77
2022/02/02 16:46:23;;;;;;;3.15;0.52;;;;;;;4.52;100.00;101649.28;6197947;28;20176;-76
2022/02/02 16:49:25;;;;;;;4.82;0.65;;;;;;;4.50;100.00;101646.72;6197339;28;20050;-76
2022/02/02 16:52:29;;;;;;;6.32;1.08;;;;;;;4.46;100.00;101655.44;6198317;28;20050;-75
2022/02/02 16:55:39;;;;;;;2.22;0.95;;;;;;;4.41;100.00;101662.47;6198937;28;20057;-76
2022/02/02 17:26:36;;;;;;;3.75;0.90;;;;;;;4.15;100.00;101675.78;6197401;28;20046;-75
2022/02/02 17:32:16;;;;;;;2.80;0.60;;;;;;;4.01;100.00;101693.28;6195189;28;20094;-77
2022/02/02 17:35:28;;;;;;;11.55;1.42;;;;;;;3.95;100.00;101696.84;6193183;28;20046;-77
2022/02/02 17:38:35;;;;;;;6.68;1.67;;;;;;;3.91;100.00;101695.13;6191495;28;20050;-75
2022/02/02 17:42:03;;;;;;;2.60;1.20;;;;;;;3.88;100.00;101710.75;6193769;28;20053;-74
2022/02/02 17:45:26;;;;;;;7.53;2.15;;;;;;;3.86;100.00;101722.94;6197229;28;20054;-77
2022/02/02 18:18:51;;;;;;;2.38;1.52;;;;;;;3.18;100.00;101727.84;6189812;28;20050;-76
2022/02/02 18:21:52;;;;;;;3.58;1.27;;;;;;;3.14;100.00;101727.88;6200532;28;20054;-76
2022/02/02 18:25:03;;;;;;;8.95;1.98;;;;;;;3.08;100.00;101727.88;6200698;28;20050;-76
2022/02/02 18:28:11;;;;;;;6.20;1.83;;;;;;;3.01;100.00;101735.72;6193975;28;20050;-76
2022/02/02 18:31:25;;;;;;;8.43;1.30;;;;;;;3.00;100.00;101728.81;6191970;28;20061;-76
2022/02/02 18:34:39;;;;;;;3.47;1.23;;;;;;;2.99;100.00;101734.84;6201216;28;20124;-75
2022/02/02 18:44:42;;;;;;;5.55;1.55;;;;;;;2.84;100.00;101747.94;6200547;28;20121;-76
2022/02/02 18:47:56;;;;;;;4.68;2.17;;;;;;;2.78;100.00;101742.78;6191861;28;20042;-76
2022/02/02 18:51:22;;;;;;;7.15;2.28;;;;;;;2.72;100.00;101738.47;6199062;28;20402;-77
2022/02/02 18:54:35;;;;;;;4.68;2.08;;;;;;;2.75;100.00;101742.78;6199579;28;20054;-77
2022/02/02 18:57:47;;;;;;;4.78;1.73;;;;;;;2.75;100.00;101740.19;6198411;28;20750;-76
2022/02/02 19:00:59;;;;;;;7.63;2.17;;;;;;;2.77;100.00;101736.75;6198089;28;20498;-77
2022/02/02 19:07:46;;;;;;;2.50;1.52;;;;;;;2.77;100.00;101749.72;6190457;28;20054;-77
2022/02/02 19:37:46;;;;;;;7.93;2.70;;;;;;;2.72;100.00;101738.47;6197334;28;20424;-77
2022/02/02 20:08:03;;;;;;;3.08;1.13;;;;;;;2.62;100.00;101735.94;6185612;28;20043;-77
2022/02/02 20:11:07;;;;;;;8.25;1.70;;;;;;;2.60;100.00;101737.69;6198215;28;20050;-77
2022/02/02 20:14:11;;;;;;;3.72;2.42;;;;;;;2.54;100.00;101731.66;6197348;28;20137;-77
2022/02/02 20:17:16;;;;;;;7.30;1.90;;;;;;;2.50;100.00;101739.47;6197432;28;20043;-76
2022/02/02 20:20:20;;;;;;;4.68;1.60;;;;;;;2.47;100.00;101734.28;6198477;28;20418;-77
2022/02/02 20:23:21;;;;;;;2.05;1.20;;;;;;;2.48;100.00;101744.63;6197938;28;20625;-77
2022/02/02 20:26:26;;;;;;;9.85;1.25;;;;;;;2.46;100.00;101724.78;6199455;28;20050;-77
2022/02/02 20:29:31;;;;;;;3.95;1.20;;;;;;;2.45;100.00;101729.09;6196233;28;20100;-77
2022/02/02 20:32:32;;;;;;;4.22;1.77;;;;;;;2.41;100.00;101729.13;6196895;28;20058;-77
2022/02/02 20:35:34;;;;;;;4.13;1.70;;;;;;;2.34;100.00;101738.66;6191065;28;20665;-77
2022/02/02 20:38:36;;;;;;;3.58;1.30;;;;;;;2.26;100.00;101743.84;6199148;28;20050;-76
2022/02/02 20:41:39;;;;;;;4.88;2.05;;;;;;;2.18;100.00;101748.22;6198816;28;20061;-77
2022/02/02 20:45:05;;;;;;;4.15;1.52;;;;;;;2.12;100.00;101742.16;6196614;28;20536;-77
2022/02/02 21:04:49;;;;;;;;;;;;;;;1.85;100.00;101758.63;6197539;28;20046;-75
2022/02/02 21:08:15;;;;;;;9.27;1.27;;;;;;;1.86;100.00;101762.94;6198211;28;20403;-77
2022/02/02 21:11:21;;;;;;;2.83;1.40;;;;;;;1.80;100.00;101769.00;6197871;28;20065;-76
2022/02/02 21:14:25;;;;;;;4.22;1.15;;;;;;;1.71;100.00;101776.78;6196330;28;20050;-77
2022/02/02 21:17:32;;;;;;;1.88;1.40;;;;;;;1.63;100.00;101773.31;6186033;28;20054;-77
2022/02/02 21:20:40;;;;;;;10.90;1.63;;;;;;;1.59;100.00;101775.06;6194205;28;20057;-75
2022/02/02 21:24:07;;;;;;;2.45;1.40;;;;;;;1.55;100.00;101773.34;6190644;28;20058;-76
2022/02/02 21:27:19;;;;;;;2.92;1.55;;;;;;;1.49;100.00;101765.53;6181496;28;20050;-77
2022/02/02 21:30:20;;;;;;;3.42;1.35;;;;;;;1.43;100.00;101761.22;6182234;28;20047;-77
2022/02/02 21:33:23;;;;;;;5.32;1.95;;;;;;;1.37;100.00;101753.47;6181464;28;20047;-77
2022/02/02 21:36:24;;;;;;;5.20;1.77;;;;;;;1.35;100.00;101750.00;6187767;28;20054;-77
2022/02/02 21:39:28;;;;;;;7.80;1.67;;;;;;;1.36;100.00;101745.69;6179038;28;20073;-77
2022/02/02 21:42:29;;;;;;;6.10;1.98;;;;;;;1.34;100.00;101745.69;6184483;28;20426;-77
2022/02/02 21:45:32;;;;;;;5.50;1.52;;;;;;;1.35;100.00;101742.22;6196442;28;20050;-75
2022/02/02 21:48:34;;;;;;;2.97;1.77;;;;;;;1.37;100.00;101740.53;6186188;28;20054;-75
2022/02/02 21:51:40;;;;;;;3.50;1.38;;;;;;;1.35;100.00;101736.19;6194041;28;20058;-75
2022/02/02 21:54:42;;;;;;;8.60;2.33;;;;;;;1.33;100.00;101728.44;6188401;28;20189;-75